sensor_id;sensor_type;location;lat;lon;timestamp;P1;durP1;ratioP1;P2;durP2;ratioP2
18610;SDS011;9435;52.122;5.502;2022-07-12T00:02:21;5.28;;;3.40;;
18610;SDS011;9435;52.122;5.502;2022-07-12T00:04:48;5.10;;;3.80;;
18610;SDS011;9435;52.122;5.502;2022-07-12T00:07:15;4.53;;;3.10;;
18610;SDS011;9435;52.122;5.502;2022-07-12T00:09:42;4.38;;;3.08;;
18610;SDS011;9435;52.122;5.502;2022-07-12T00:12:09;4.00;;;3.30;;
18610;SDS011;9435;52.122;5.502;2022-07-12T00:14:36;3.67;;;2.95;;
18610;SDS011;9435;52.122;5.502;2022-07-12T00:17:03;4.32;;;3.25;;
18610;SDS011;9435;52.122;5.502;2022-07-12T00:19:32;5.57;;;3.50;;
18610;SDS011;9435;52.122;5.502;2022-07-12T00:21:59;4.05;;;2.95;;
18610;SDS011;9435;52.122;5.502;2022-07-12T00:24:26;4.60;;;3.50;;
18610;SDS011;9435;52.122;5.502;2022-07-12T00:26:53;5.18;;;3.70;;
18610;SDS011;9435;52.122;5.502;2022-07-12T00:29:20;4.40;;;3.50;;
18610;SDS011;9435;52.122;5.502;2022-07-12T00:31:47;4.38;;;3.30;;
18610;SDS011;9435;52.122;5.502;2022-07-12T00:34:14;4.43;;;3.53;;
18610;SDS011;9435;52.122;5.502;2022-07-12T00:36:42;4.90;;;3.53;;
18610;SDS011;9435;52.122;5.502;2022-07-12T00:39:09;3.97;;;3.10;;
18610;SDS011;9435;52.122;5.502;2022-07-12T00:41:36;3.95;;;2.95;;
18610;SDS011;9435;52.122;5.502;2022-07-12T00:44:04;3.83;;;3.10;;
18610;SDS011;9435;52.122;5.502;2022-07-12T00:46:31;4.40;;;2.97;;
18610;SDS011;9435;52.122;5.502;2022-07-12T00:48:58;6.38;;;3.17;;
18610;SDS011;9435;52.122;5.502;2022-07-12T00:51:25;4.05;;;3.10;;
18610;SDS011;9435;52.122;5.502;2022-07-12T00:53:54;3.80;;;2.88;;
18610;SDS011;9435;52.122;5.502;2022-07-12T00:56:24;3.83;;;2.63;;
18610;SDS011;9435;52.122;5.502;2022-07-12T00:58:51;3.50;;;2.58;;
18610;SDS011;9435;52.122;5.502;2022-07-12T01:01:18;3.78;;;2.60;;
18610;SDS011;9435;52.122;5.502;2022-07-12T01:03:47;4.25;;;2.40;;
18610;SDS011;9435;52.122;5.502;2022-07-12T01:06:14;2.42;;;2.05;;
18610;SDS011;9435;52.122;5.502;2022-07-12T01:08:41;3.13;;;2.10;;
18610;SDS011;9435;52.122;5.502;2022-07-12T01:11:10;3.55;;;2.35;;
18610;SDS011;9435;52.122;5.502;2022-07-12T01:13:37;4.00;;;2.65;;
18610;SDS011;9435;52.122;5.502;2022-07-12T01:16:05;3.72;;;2.60;;
18610;SDS011;9435;52.122;5.502;2022-07-12T01:18:34;3.15;;;2.42;;
18610;SDS011;9435;52.122;5.502;2022-07-12T01:21:03;3.47;;;2.60;;
18610;SDS011;9435;52.122;5.502;2022-07-12T01:23:35;3.97;;;2.60;;
18610;SDS011;9435;52.122;5.502;2022-07-12T01:26:04;3.22;;;2.60;;
18610;SDS011;9435;52.122;5.502;2022-07-12T01:28:31;6.68;;;2.75;;
18610;SDS011;9435;52.122;5.502;2022-07-12T01:30:58;2.70;;;2.50;;
18610;SDS011;9435;52.122;5.502;2022-07-12T01:33:25;3.00;;;2.42;;
18610;SDS011;9435;52.122;5.502;2022-07-12T01:35:52;3.85;;;2.47;;
18610;SDS011;9435;52.122;5.502;2022-07-12T01:38:19;3.60;;;2.38;;
18610;SDS011;9435;52.122;5.502;2022-07-12T01:40:48;3.90;;;2.40;;
18610;SDS011;9435;52.122;5.502;2022-07-12T01:43:15;5.70;;;2.70;;
18610;SDS011;9435;52.122;5.502;2022-07-12T01:45:43;3.60;;;2.70;;
18610;SDS011;9435;52.122;5.502;2022-07-12T01:48:10;3.20;;;2.80;;
18610;SDS011;9435;52.122;5.502;2022-07-12T01:50:37;3.83;;;2.90;;
18610;SDS011;9435;52.122;5.502;2022-07-12T01:53:05;3.83;;;3.00;;
18610;SDS011;9435;52.122;5.502;2022-07-12T01:55:33;2.90;;;2.60;;
18610;SDS011;9435;52.122;5.502;2022-07-12T01:58:02;4.20;;;2.58;;
18610;SDS011;9435;52.122;5.502;2022-07-12T02:00:29;3.20;;;2.42;;
18610;SDS011;9435;52.122;5.502;2022-07-12T02:02:57;3.35;;;2.30;;
18610;SDS011;9435;52.122;5.502;2022-07-12T02:05:24;3.20;;;2.40;;
18610;SDS011;9435;52.122;5.502;2022-07-12T02:07:51;3.75;;;2.58;;
18610;SDS011;9435;52.122;5.502;2022-07-12T02:10:19;4.47;;;2.75;;
18610;SDS011;9435;52.122;5.502;2022-07-12T02:12:47;3.83;;;2.42;;
18610;SDS011;9435;52.122;5.502;2022-07-12T02:15:15;2.45;;;2.03;;
18610;SDS011;9435;52.122;5.502;2022-07-12T02:17:42;2.90;;;2.30;;
18610;SDS011;9435;52.122;5.502;2022-07-12T02:20:10;2.90;;;1.90;;
18610;SDS011;9435;52.122;5.502;2022-07-12T02:22:38;3.05;;;2.20;;
18610;SDS011;9435;52.122;5.502;2022-07-12T02:25:05;2.80;;;2.30;;
18610;SDS011;9435;52.122;5.502;2022-07-12T02:27:33;2.65;;;1.90;;
18610;SDS011;9435;52.122;5.502;2022-07-12T02:30:00;3.45;;;2.10;;
18610;SDS011;9435;52.122;5.502;2022-07-12T02:32:29;2.15;;;1.90;;
18610;SDS011;9435;52.122;5.502;2022-07-12T02:34:56;3.88;;;2.30;;
18610;SDS011;9435;52.122;5.502;2022-07-12T02:37:23;3.08;;;2.00;;
18610;SDS011;9435;52.122;5.502;2022-07-12T02:39:50;2.80;;;2.35;;
18610;SDS011;9435;52.122;5.502;2022-07-12T02:42:37;3.40;;;2.13;;
18610;SDS011;9435;52.122;5.502;2022-07-12T02:45:05;3.72;;;2.30;;
18610;SDS011;9435;52.122;5.502;2022-07-12T02:47:37;2.95;;;2.00;;
18610;SDS011;9435;52.122;5.502;2022-07-12T02:50:04;2.85;;;2.10;;
18610;SDS011;9435;52.122;5.502;2022-07-12T02:52:32;2.97;;;2.30;;
18610;SDS011;9435;52.122;5.502;2022-07-12T02:54:59;3.08;;;2.38;;
18610;SDS011;9435;52.122;5.502;2022-07-12T02:57:26;3.05;;;2.40;;
18610;SDS011;9435;52.122;5.502;2022-07-12T02:59:53;2.75;;;2.05;;
18610;SDS011;9435;52.122;5.502;2022-07-12T03:02:20;2.83;;;2.15;;
18610;SDS011;9435;52.122;5.502;2022-07-12T03:04:48;2.75;;;2.10;;
18610;SDS011;9435;52.122;5.502;2022-07-12T03:07:15;2.75;;;2.20;;
18610;SDS011;9435;52.122;5.502;2022-07-12T03:09:42;2.33;;;2.10;;
18610;SDS011;9435;52.122;5.502;2022-07-12T03:12:10;3.83;;;2.35;;
18610;SDS011;9435;52.122;5.502;2022-07-12T03:14:37;2.72;;;2.38;;
18610;SDS011;9435;52.122;5.502;2022-07-12T03:17:04;2.83;;;2.50;;
18610;SDS011;9435;52.122;5.502;2022-07-12T03:19:31;3.53;;;2.58;;
18610;SDS011;9435;52.122;5.502;2022-07-12T03:22:00;3.22;;;2.63;;
18610;SDS011;9435;52.122;5.502;2022-07-12T03:24:27;3.65;;;2.90;;
18610;SDS011;9435;52.122;5.502;2022-07-12T03:26:54;3.35;;;2.65;;
18610;SDS011;9435;52.122;5.502;2022-07-12T03:29:21;4.00;;;2.85;;
18610;SDS011;9435;52.122;5.502;2022-07-12T03:31:48;4.38;;;2.85;;
18610;SDS011;9435;52.122;5.502;2022-07-12T03:34:15;4.25;;;2.85;;
18610;SDS011;9435;52.122;5.502;2022-07-12T03:36:42;5.47;;;2.85;;
18610;SDS011;9435;52.122;5.502;2022-07-12T03:39:10;4.03;;;2.95;;
18610;SDS011;9435;52.122;5.502;2022-07-12T03:41:37;3.38;;;2.58;;
18610;SDS011;9435;52.122;5.502;2022-07-12T03:44:04;3.97;;;2.67;;
18610;SDS011;9435;52.122;5.502;2022-07-12T03:46:32;2.97;;;2.53;;
18610;SDS011;9435;52.122;5.502;2022-07-12T03:48:59;4.18;;;2.60;;
18610;SDS011;9435;52.122;5.502;2022-07-12T03:51:26;7.30;;;3.08;;
18610;SDS011;9435;52.122;5.502;2022-07-12T03:53:53;3.78;;;3.03;;
18610;SDS011;9435;52.122;5.502;2022-07-12T03:56:22;3.60;;;2.92;;
18610;SDS011;9435;52.122;5.502;2022-07-12T03:59:07;5.18;;;3.00;;
18610;SDS011;9435;52.122;5.502;2022-07-12T04:01:34;4.82;;;2.90;;
18610;SDS011;9435;52.122;5.502;2022-07-12T04:04:01;4.75;;;2.83;;
18610;SDS011;9435;52.122;5.502;2022-07-12T04:06:28;3.47;;;2.58;;
18610;SDS011;9435;52.122;5.502;2022-07-12T04:08:55;3.80;;;2.70;;
18610;SDS011;9435;52.122;5.502;2022-07-12T04:11:24;3.97;;;2.70;;
18610;SDS011;9435;52.122;5.502;2022-07-12T04:13:51;3.78;;;2.60;;
18610;SDS011;9435;52.122;5.502;2022-07-12T04:16:18;2.60;;;2.05;;
18610;SDS011;9435;52.122;5.502;2022-07-12T04:18:45;2.75;;;2.10;;
18610;SDS011;9435;52.122;5.502;2022-07-12T04:21:12;3.85;;;2.38;;
18610;SDS011;9435;52.122;5.502;2022-07-12T04:23:39;5.70;;;2.28;;
18610;SDS011;9435;52.122;5.502;2022-07-12T04:26:06;5.07;;;2.38;;
18610;SDS011;9435;52.122;5.502;2022-07-12T04:28:35;3.00;;;2.42;;
18610;SDS011;9435;52.122;5.502;2022-07-12T04:31:02;3.38;;;2.60;;
18610;SDS011;9435;52.122;5.502;2022-07-12T04:33:29;6.38;;;3.20;;
18610;SDS011;9435;52.122;5.502;2022-07-12T04:35:56;4.88;;;3.38;;
18610;SDS011;9435;52.122;5.502;2022-07-12T04:38:23;4.20;;;3.78;;
18610;SDS011;9435;52.122;5.502;2022-07-12T04:40:50;3.58;;;3.03;;
18610;SDS011;9435;52.122;5.502;2022-07-12T04:43:18;5.75;;;3.85;;
18610;SDS011;9435;52.122;5.502;2022-07-12T04:45:47;4.80;;;3.80;;
18610;SDS011;9435;52.122;5.502;2022-07-12T04:48:14;6.50;;;4.30;;
18610;SDS011;9435;52.122;5.502;2022-07-12T04:50:41;5.43;;;4.30;;
18610;SDS011;9435;52.122;5.502;2022-07-12T04:53:10;6.75;;;4.80;;
18610;SDS011;9435;52.122;5.502;2022-07-12T04:55:37;5.25;;;4.18;;
18610;SDS011;9435;52.122;5.502;2022-07-12T04:58:04;3.97;;;3.42;;
18610;SDS011;9435;52.122;5.502;2022-07-12T05:00:31;5.20;;;3.47;;
18610;SDS011;9435;52.122;5.502;2022-07-12T05:02:59;6.05;;;3.67;;
18610;SDS011;9435;52.122;5.502;2022-07-12T05:05:26;6.20;;;3.42;;
18610;SDS011;9435;52.122;5.502;2022-07-12T05:07:53;5.65;;;3.50;;
18610;SDS011;9435;52.122;5.502;2022-07-12T05:10:20;5.78;;;3.50;;
18610;SDS011;9435;52.122;5.502;2022-07-12T05:12:47;5.30;;;3.53;;
18610;SDS011;9435;52.122;5.502;2022-07-12T05:15:14;5.97;;;3.85;;
18610;SDS011;9435;52.122;5.502;2022-07-12T05:17:41;4.78;;;4.07;;
18610;SDS011;9435;52.122;5.502;2022-07-12T05:20:10;9.30;;;4.72;;
18610;SDS011;9435;52.122;5.502;2022-07-12T05:22:37;13.18;;;5.38;;
18610;SDS011;9435;52.122;5.502;2022-07-12T05:25:06;14.32;;;5.60;;
18610;SDS011;9435;52.122;5.502;2022-07-12T05:27:34;10.77;;;6.55;;
18610;SDS011;9435;52.122;5.502;2022-07-12T05:30:01;13.68;;;6.30;;
18610;SDS011;9435;52.122;5.502;2022-07-12T05:32:29;12.77;;;6.10;;
18610;SDS011;9435;52.122;5.502;2022-07-12T05:34:56;14.77;;;7.22;;
18610;SDS011;9435;52.122;5.502;2022-07-12T05:37:25;19.67;;;6.90;;
18610;SDS011;9435;52.122;5.502;2022-07-12T05:39:52;13.73;;;6.85;;
18610;SDS011;9435;52.122;5.502;2022-07-12T05:42:19;9.68;;;6.68;;
18610;SDS011;9435;52.122;5.502;2022-07-12T05:44:46;15.40;;;7.28;;
18610;SDS011;9435;52.122;5.502;2022-07-12T05:47:13;14.48;;;10.07;;
18610;SDS011;9435;52.122;5.502;2022-07-12T05:49:40;13.90;;;10.95;;
18610;SDS011;9435;52.122;5.502;2022-07-12T05:52:07;13.73;;;11.25;;
18610;SDS011;9435;52.122;5.502;2022-07-12T05:54:53;15.70;;;11.73;;
18610;SDS011;9435;52.122;5.502;2022-07-12T05:57:20;13.90;;;10.35;;
18610;SDS011;9435;52.122;5.502;2022-07-12T05:59:48;15.02;;;10.90;;
18610;SDS011;9435;52.122;5.502;2022-07-12T06:02:15;13.20;;;10.02;;
18610;SDS011;9435;52.122;5.502;2022-07-12T06:04:42;12.50;;;9.70;;
18610;SDS011;9435;52.122;5.502;2022-07-12T06:07:09;14.20;;;9.65;;
18610;SDS011;9435;52.122;5.502;2022-07-12T06:09:36;13.18;;;9.73;;
18610;SDS011;9435;52.122;5.502;2022-07-12T06:12:05;13.20;;;9.00;;
18610;SDS011;9435;52.122;5.502;2022-07-12T06:14:32;14.93;;;9.45;;
18610;SDS011;9435;52.122;5.502;2022-07-12T06:17:00;12.43;;;9.35;;
18610;SDS011;9435;52.122;5.502;2022-07-12T06:19:27;12.23;;;8.95;;
18610;SDS011;9435;52.122;5.502;2022-07-12T06:21:54;15.20;;;9.23;;
18610;SDS011;9435;52.122;5.502;2022-07-12T06:24:21;11.52;;;8.75;;
18610;SDS011;9435;52.122;5.502;2022-07-12T06:26:48;10.23;;;8.27;;
18610;SDS011;9435;52.122;5.502;2022-07-12T06:29:16;11.70;;;9.32;;
18610;SDS011;9435;52.122;5.502;2022-07-12T06:31:43;14.73;;;9.77;;
18610;SDS011;9435;52.122;5.502;2022-07-12T06:34:10;12.13;;;8.80;;
18610;SDS011;9435;52.122;5.502;2022-07-12T06:36:37;10.82;;;8.02;;
18610;SDS011;9435;52.122;5.502;2022-07-12T06:39:04;13.02;;;8.38;;
18610;SDS011;9435;52.122;5.502;2022-07-12T06:41:31;10.70;;;7.95;;
18610;SDS011;9435;52.122;5.502;2022-07-12T06:43:58;11.82;;;7.65;;
18610;SDS011;9435;52.122;5.502;2022-07-12T06:46:27;9.95;;;7.20;;
18610;SDS011;9435;52.122;5.502;2022-07-12T06:48:54;12.73;;;7.22;;
18610;SDS011;9435;52.122;5.502;2022-07-12T06:51:21;8.95;;;6.72;;
18610;SDS011;9435;52.122;5.502;2022-07-12T06:53:48;9.48;;;7.13;;
18610;SDS011;9435;52.122;5.502;2022-07-12T06:56:15;10.15;;;7.10;;
18610;SDS011;9435;52.122;5.502;2022-07-12T06:58:42;10.95;;;7.22;;
18610;SDS011;9435;52.122;5.502;2022-07-12T07:01:09;10.88;;;7.65;;
18610;SDS011;9435;52.122;5.502;2022-07-12T07:03:37;10.30;;;7.03;;
18610;SDS011;9435;52.122;5.502;2022-07-12T07:06:05;8.50;;;6.72;;
18610;SDS011;9435;52.122;5.502;2022-07-12T07:08:32;10.93;;;7.50;;
18610;SDS011;9435;52.122;5.502;2022-07-12T07:10:59;8.70;;;6.45;;
18610;SDS011;9435;52.122;5.502;2022-07-12T07:13:26;10.60;;;7.22;;
18610;SDS011;9435;52.122;5.502;2022-07-12T07:15:53;9.15;;;7.20;;
18610;SDS011;9435;52.122;5.502;2022-07-12T07:18:20;7.53;;;5.82;;
18610;SDS011;9435;52.122;5.502;2022-07-12T07:20:48;8.02;;;6.15;;
18610;SDS011;9435;52.122;5.502;2022-07-12T07:23:15;10.45;;;7.95;;
18610;SDS011;9435;52.122;5.502;2022-07-12T07:25:43;9.27;;;7.43;;
18610;SDS011;9435;52.122;5.502;2022-07-12T07:28:10;8.40;;;6.85;;
18610;SDS011;9435;52.122;5.502;2022-07-12T07:30:37;14.48;;;7.85;;
18610;SDS011;9435;52.122;5.502;2022-07-12T07:33:18;8.52;;;7.18;;
18610;SDS011;9435;52.122;5.502;2022-07-12T07:35:45;7.35;;;6.20;;
18610;SDS011;9435;52.122;5.502;2022-07-12T07:38:14;6.82;;;5.50;;
18610;SDS011;9435;52.122;5.502;2022-07-12T07:40:42;6.25;;;5.20;;
18610;SDS011;9435;52.122;5.502;2022-07-12T07:43:09;8.38;;;6.22;;
18610;SDS011;9435;52.122;5.502;2022-07-12T07:45:36;7.65;;;5.20;;
18610;SDS011;9435;52.122;5.502;2022-07-12T07:48:04;6.13;;;4.82;;
18610;SDS011;9435;52.122;5.502;2022-07-12T07:50:31;7.05;;;5.45;;
18610;SDS011;9435;52.122;5.502;2022-07-12T07:52:58;7.75;;;5.63;;
18610;SDS011;9435;52.122;5.502;2022-07-12T07:55:26;9.10;;;5.65;;
18610;SDS011;9435;52.122;5.502;2022-07-12T07:57:53;7.53;;;5.80;;
18610;SDS011;9435;52.122;5.502;2022-07-12T08:00:20;7.53;;;4.82;;
18610;SDS011;9435;52.122;5.502;2022-07-12T08:02:47;7.32;;;5.90;;
18610;SDS011;9435;52.122;5.502;2022-07-12T08:05:14;5.43;;;4.18;;
18610;SDS011;9435;52.122;5.502;2022-07-12T08:07:41;5.90;;;4.88;;
18610;SDS011;9435;52.122;5.502;2022-07-12T08:10:09;5.82;;;4.00;;
18610;SDS011;9435;52.122;5.502;2022-07-12T08:12:37;5.35;;;4.68;;
18610;SDS011;9435;52.122;5.502;2022-07-12T08:15:04;6.65;;;4.40;;
18610;SDS011;9435;52.122;5.502;2022-07-12T08:17:32;7.53;;;5.60;;
18610;SDS011;9435;52.122;5.502;2022-07-12T08:19:59;6.97;;;5.57;;
18610;SDS011;9435;52.122;5.502;2022-07-12T08:22:26;5.20;;;4.32;;
18610;SDS011;9435;52.122;5.502;2022-07-12T08:24:53;5.80;;;5.10;;
18610;SDS011;9435;52.122;5.502;2022-07-12T08:27:20;4.97;;;4.43;;
18610;SDS011;9435;52.122;5.502;2022-07-12T08:29:49;5.75;;;5.05;;
18610;SDS011;9435;52.122;5.502;2022-07-12T08:32:16;5.80;;;4.55;;
18610;SDS011;9435;52.122;5.502;2022-07-12T08:34:43;6.45;;;4.90;;
18610;SDS011;9435;52.122;5.502;2022-07-12T08:37:10;6.78;;;4.03;;
18610;SDS011;9435;52.122;5.502;2022-07-12T08:39:36;25.33;;;9.32;;
18610;SDS011;9435;52.122;5.502;2022-07-12T08:42:04;16.77;;;6.70;;
18610;SDS011;9435;52.122;5.502;2022-07-12T08:44:34;9.25;;;4.88;;
18610;SDS011;9435;52.122;5.502;2022-07-12T08:47:03;6.38;;;5.22;;
18610;SDS011;9435;52.122;5.502;2022-07-12T08:49:30;5.65;;;4.03;;
18610;SDS011;9435;52.122;5.502;2022-07-12T08:51:57;8.68;;;5.53;;
18610;SDS011;9435;52.122;5.502;2022-07-12T08:54:24;6.20;;;4.10;;
18610;SDS011;9435;52.122;5.502;2022-07-12T08:56:51;6.95;;;4.80;;
18610;SDS011;9435;52.122;5.502;2022-07-12T08:59:24;4.95;;;4.40;;
18610;SDS011;9435;52.122;5.502;2022-07-12T09:01:53;5.18;;;4.00;;
18610;SDS011;9435;52.122;5.502;2022-07-12T09:04:22;5.18;;;4.15;;
18610;SDS011;9435;52.122;5.502;2022-07-12T09:06:52;6.35;;;5.57;;
18610;SDS011;9435;52.122;5.502;2022-07-12T09:09:26;4.32;;;3.45;;
18610;SDS011;9435;52.122;5.502;2022-07-12T09:11:54;6.10;;;4.65;;
18610;SDS011;9435;52.122;5.502;2022-07-12T09:14:21;4.65;;;3.40;;
18610;SDS011;9435;52.122;5.502;2022-07-12T09:16:58;5.90;;;4.25;;
18610;SDS011;9435;52.122;5.502;2022-07-12T09:19:27;5.70;;;3.90;;
18610;SDS011;9435;52.122;5.502;2022-07-12T09:21:54;6.38;;;4.28;;
18610;SDS011;9435;52.122;5.502;2022-07-12T09:24:23;4.88;;;3.83;;
18610;SDS011;9435;52.122;5.502;2022-07-12T09:26:53;4.93;;;2.90;;
18610;SDS011;9435;52.122;5.502;2022-07-12T09:29:22;4.28;;;3.85;;
18610;SDS011;9435;52.122;5.502;2022-07-12T09:31:50;8.07;;;3.75;;
18610;SDS011;9435;52.122;5.502;2022-07-12T09:34:37;3.58;;;2.90;;
18610;SDS011;9435;52.122;5.502;2022-07-12T09:37:23;4.88;;;3.38;;
18610;SDS011;9435;52.122;5.502;2022-07-12T09:39:51;5.00;;;3.30;;
18610;SDS011;9435;52.122;5.502;2022-07-12T09:42:19;3.20;;;2.20;;
18610;SDS011;9435;52.122;5.502;2022-07-12T09:44:47;4.63;;;3.22;;
18610;SDS011;9435;52.122;5.502;2022-07-12T09:47:15;3.40;;;2.65;;
18610;SDS011;9435;52.122;5.502;2022-07-12T09:49:44;3.75;;;3.08;;
18610;SDS011;9435;52.122;5.502;2022-07-12T09:52:12;4.80;;;3.42;;
18610;SDS011;9435;52.122;5.502;2022-07-12T09:54:45;4.60;;;3.55;;
18610;SDS011;9435;52.122;5.502;2022-07-12T09:57:16;4.13;;;3.10;;
18610;SDS011;9435;52.122;5.502;2022-07-12T09:59:47;5.78;;;3.20;;
18610;SDS011;9435;52.122;5.502;2022-07-12T10:02:17;4.13;;;3.00;;
18610;SDS011;9435;52.122;5.502;2022-07-12T10:04:46;3.20;;;2.75;;
18610;SDS011;9435;52.122;5.502;2022-07-12T10:07:14;3.20;;;2.80;;
18610;SDS011;9435;52.122;5.502;2022-07-12T10:09:41;3.50;;;2.63;;
18610;SDS011;9435;52.122;5.502;2022-07-12T10:12:10;3.25;;;2.65;;
18610;SDS011;9435;52.122;5.502;2022-07-12T10:14:39;3.30;;;2.70;;
18610;SDS011;9435;52.122;5.502;2022-07-12T10:17:07;5.07;;;3.40;;
18610;SDS011;9435;52.122;5.502;2022-07-12T10:19:35;4.22;;;3.50;;
18610;SDS011;9435;52.122;5.502;2022-07-12T10:22:05;3.25;;;2.47;;
18610;SDS011;9435;52.122;5.502;2022-07-12T10:24:47;3.85;;;2.88;;
18610;SDS011;9435;52.122;5.502;2022-07-12T10:27:32;4.97;;;3.33;;
18610;SDS011;9435;52.122;5.502;2022-07-12T10:30:12;3.20;;;2.70;;
18610;SDS011;9435;52.122;5.502;2022-07-12T10:32:47;4.65;;;2.90;;
18610;SDS011;9435;52.122;5.502;2022-07-12T10:35:18;2.90;;;1.95;;
18610;SDS011;9435;52.122;5.502;2022-07-12T10:40:49;5.10;;;3.58;;
18610;SDS011;9435;52.122;5.502;2022-07-12T10:43:27;3.88;;;2.42;;
18610;SDS011;9435;52.122;5.502;2022-07-12T10:46:19;3.25;;;2.88;;
18610;SDS011;9435;52.122;5.502;2022-07-12T10:48:50;3.53;;;2.85;;
18610;SDS011;9435;52.122;5.502;2022-07-12T10:51:18;5.22;;;3.65;;
18610;SDS011;9435;52.122;5.502;2022-07-12T10:53:47;5.18;;;3.88;;
18610;SDS011;9435;52.122;5.502;2022-07-12T10:56:16;3.47;;;3.10;;
18610;SDS011;9435;52.122;5.502;2022-07-12T10:58:46;4.80;;;3.00;;
18610;SDS011;9435;52.122;5.502;2022-07-12T11:01:14;3.05;;;2.40;;
18610;SDS011;9435;52.122;5.502;2022-07-12T11:03:45;6.63;;;4.10;;
18610;SDS011;9435;52.122;5.502;2022-07-12T11:06:15;6.68;;;5.32;;
18610;SDS011;9435;52.122;5.502;2022-07-12T11:08:47;5.38;;;3.40;;
18610;SDS011;9435;52.122;5.502;2022-07-12T11:11:16;4.28;;;3.38;;
18610;SDS011;9435;52.122;5.502;2022-07-12T11:13:43;5.15;;;4.10;;
18610;SDS011;9435;52.122;5.502;2022-07-12T11:16:10;4.47;;;3.75;;
18610;SDS011;9435;52.122;5.502;2022-07-12T11:18:38;4.47;;;3.05;;
18610;SDS011;9435;52.122;5.502;2022-07-12T11:21:05;3.85;;;3.20;;
18610;SDS011;9435;52.122;5.502;2022-07-12T11:23:32;5.22;;;3.90;;
18610;SDS011;9435;52.122;5.502;2022-07-12T11:26:02;5.13;;;3.38;;
18610;SDS011;9435;52.122;5.502;2022-07-12T11:28:30;4.53;;;3.13;;
18610;SDS011;9435;52.122;5.502;2022-07-12T11:31:01;3.30;;;2.75;;
18610;SDS011;9435;52.122;5.502;2022-07-12T11:33:30;2.78;;;2.25;;
18610;SDS011;9435;52.122;5.502;2022-07-12T11:35:59;2.85;;;2.35;;
18610;SDS011;9435;52.122;5.502;2022-07-12T11:38:27;4.32;;;2.53;;
18610;SDS011;9435;52.122;5.502;2022-07-12T11:40:55;4.18;;;3.33;;
18610;SDS011;9435;52.122;5.502;2022-07-12T11:43:24;3.35;;;2.60;;
18610;SDS011;9435;52.122;5.502;2022-07-12T11:45:51;1.98;;;1.63;;
18610;SDS011;9435;52.122;5.502;2022-07-12T11:48:19;3.28;;;2.20;;
18610;SDS011;9435;52.122;5.502;2022-07-12T11:50:46;3.42;;;1.80;;
18610;SDS011;9435;52.122;5.502;2022-07-12T11:53:15;5.25;;;2.20;;
18610;SDS011;9435;52.122;5.502;2022-07-12T11:55:43;5.65;;;2.08;;
18610;SDS011;9435;52.122;5.502;2022-07-12T11:58:11;2.10;;;1.80;;
18610;SDS011;9435;52.122;5.502;2022-07-12T12:00:41;2.70;;;1.60;;
18610;SDS011;9435;52.122;5.502;2022-07-12T12:03:08;2.53;;;2.10;;
18610;SDS011;9435;52.122;5.502;2022-07-12T12:05:35;5.90;;;3.35;;
18610;SDS011;9435;52.122;5.502;2022-07-12T12:08:03;4.55;;;3.00;;
18610;SDS011;9435;52.122;5.502;2022-07-12T12:10:31;3.08;;;2.17;;
18610;SDS011;9435;52.122;5.502;2022-07-12T12:12:59;4.25;;;3.50;;
18610;SDS011;9435;52.122;5.502;2022-07-12T12:15:27;3.90;;;3.08;;
18610;SDS011;9435;52.122;5.502;2022-07-12T12:17:58;4.05;;;3.28;;
18610;SDS011;9435;52.122;5.502;2022-07-12T12:20:27;4.38;;;3.03;;
18610;SDS011;9435;52.122;5.502;2022-07-12T12:22:56;4.15;;;2.10;;
18610;SDS011;9435;52.122;5.502;2022-07-12T12:25:24;2.85;;;2.42;;
18610;SDS011;9435;52.122;5.502;2022-07-12T12:27:54;2.60;;;2.00;;
18610;SDS011;9435;52.122;5.502;2022-07-12T12:30:22;4.60;;;2.78;;
18610;SDS011;9435;52.122;5.502;2022-07-12T12:32:50;3.08;;;2.50;;
18610;SDS011;9435;52.122;5.502;2022-07-12T12:35:21;5.00;;;3.08;;
18610;SDS011;9435;52.122;5.502;2022-07-12T12:37:56;3.00;;;2.17;;
18610;SDS011;9435;52.122;5.502;2022-07-12T12:40:24;4.57;;;2.83;;
18610;SDS011;9435;52.122;5.502;2022-07-12T12:42:52;4.03;;;3.10;;
18610;SDS011;9435;52.122;5.502;2022-07-12T12:45:31;3.92;;;2.35;;
18610;SDS011;9435;52.122;5.502;2022-07-12T12:47:58;4.85;;;2.50;;
18610;SDS011;9435;52.122;5.502;2022-07-12T12:50:41;2.92;;;1.70;;
18610;SDS011;9435;52.122;5.502;2022-07-12T12:53:10;2.28;;;1.83;;
18610;SDS011;9435;52.122;5.502;2022-07-12T12:55:38;2.40;;;1.80;;
18610;SDS011;9435;52.122;5.502;2022-07-12T12:58:05;2.80;;;1.48;;
18610;SDS011;9435;52.122;5.502;2022-07-12T13:00:34;2.25;;;1.67;;
18610;SDS011;9435;52.122;5.502;2022-07-12T13:03:03;2.60;;;2.20;;
18610;SDS011;9435;52.122;5.502;2022-07-12T13:05:30;2.08;;;1.88;;
18610;SDS011;9435;52.122;5.502;2022-07-12T13:07:59;3.13;;;2.00;;
18610;SDS011;9435;52.122;5.502;2022-07-12T13:10:26;4.07;;;1.67;;
18610;SDS011;9435;52.122;5.502;2022-07-12T13:12:54;2.25;;;1.90;;
18610;SDS011;9435;52.122;5.502;2022-07-12T13:15:21;3.03;;;2.05;;
18610;SDS011;9435;52.122;5.502;2022-07-12T13:17:48;3.80;;;2.42;;
18610;SDS011;9435;52.122;5.502;2022-07-12T13:20:15;3.33;;;2.60;;
18610;SDS011;9435;52.122;5.502;2022-07-12T13:22:43;3.83;;;2.20;;
18610;SDS011;9435;52.122;5.502;2022-07-12T13:25:12;3.22;;;2.40;;
18610;SDS011;9435;52.122;5.502;2022-07-12T13:27:40;3.75;;;2.25;;
18610;SDS011;9435;52.122;5.502;2022-07-12T13:30:08;5.25;;;2.10;;
18610;SDS011;9435;52.122;5.502;2022-07-12T13:32:38;3.00;;;2.40;;
18610;SDS011;9435;52.122;5.502;2022-07-12T13:35:06;2.80;;;2.30;;
18610;SDS011;9435;52.122;5.502;2022-07-12T13:37:34;2.38;;;2.13;;
18610;SDS011;9435;52.122;5.502;2022-07-12T13:40:02;1.98;;;1.80;;
18610;SDS011;9435;52.122;5.502;2022-07-12T13:42:45;2.40;;;1.90;;
18610;SDS011;9435;52.122;5.502;2022-07-12T13:45:13;3.03;;;1.90;;
18610;SDS011;9435;52.122;5.502;2022-07-12T13:47:42;2.05;;;1.83;;
18610;SDS011;9435;52.122;5.502;2022-07-12T13:50:10;1.88;;;1.70;;
18610;SDS011;9435;52.122;5.502;2022-07-12T13:52:39;2.80;;;2.08;;
18610;SDS011;9435;52.122;5.502;2022-07-12T13:55:07;3.08;;;1.80;;
18610;SDS011;9435;52.122;5.502;2022-07-12T13:57:35;4.60;;;2.05;;
18610;SDS011;9435;52.122;5.502;2022-07-12T14:00:05;5.22;;;1.88;;
18610;SDS011;9435;52.122;5.502;2022-07-12T14:02:36;2.22;;;2.00;;
18610;SDS011;9435;52.122;5.502;2022-07-12T14:05:04;3.65;;;2.10;;
18610;SDS011;9435;52.122;5.502;2022-07-12T14:07:31;1.80;;;1.70;;
18610;SDS011;9435;52.122;5.502;2022-07-12T14:09:59;1.65;;;1.55;;
18610;SDS011;9435;52.122;5.502;2022-07-12T14:12:26;3.50;;;2.00;;
18610;SDS011;9435;52.122;5.502;2022-07-12T14:14:53;4.22;;;2.22;;
18610;SDS011;9435;52.122;5.502;2022-07-12T14:17:39;2.22;;;2.00;;
18610;SDS011;9435;52.122;5.502;2022-07-12T14:20:08;2.28;;;2.00;;
18610;SDS011;9435;52.122;5.502;2022-07-12T14:22:37;2.03;;;1.60;;
18610;SDS011;9435;52.122;5.502;2022-07-12T14:25:05;2.25;;;1.65;;
18610;SDS011;9435;52.122;5.502;2022-07-12T14:27:33;4.35;;;1.80;;
18610;SDS011;9435;52.122;5.502;2022-07-12T14:30:01;2.75;;;2.03;;
18610;SDS011;9435;52.122;5.502;2022-07-12T14:32:29;3.50;;;1.80;;
18610;SDS011;9435;52.122;5.502;2022-07-12T14:34:57;2.28;;;1.77;;
18610;SDS011;9435;52.122;5.502;2022-07-12T14:37:24;2.78;;;1.95;;
18610;SDS011;9435;52.122;5.502;2022-07-12T14:39:51;2.65;;;1.88;;
18610;SDS011;9435;52.122;5.502;2022-07-12T14:42:18;3.88;;;2.00;;
18610;SDS011;9435;52.122;5.502;2022-07-12T14:44:45;2.10;;;1.55;;
18610;SDS011;9435;52.122;5.502;2022-07-12T14:47:13;2.00;;;1.67;;
18610;SDS011;9435;52.122;5.502;2022-07-12T14:49:40;2.58;;;1.52;;
18610;SDS011;9435;52.122;5.502;2022-07-12T14:52:08;2.38;;;1.70;;
18610;SDS011;9435;52.122;5.502;2022-07-12T14:54:36;3.15;;;1.77;;
18610;SDS011;9435;52.122;5.502;2022-07-12T14:57:03;1.60;;;1.50;;
18610;SDS011;9435;52.122;5.502;2022-07-12T14:59:30;3.03;;;1.63;;
18610;SDS011;9435;52.122;5.502;2022-07-12T15:01:57;2.08;;;1.40;;
18610;SDS011;9435;52.122;5.502;2022-07-12T15:04:25;2.00;;;1.40;;
18610;SDS011;9435;52.122;5.502;2022-07-12T15:06:52;5.63;;;1.70;;
18610;SDS011;9435;52.122;5.502;2022-07-12T15:09:21;1.70;;;1.60;;
18610;SDS011;9435;52.122;5.502;2022-07-12T15:11:48;2.17;;;1.70;;